sensor_id;sensor_type;location;lat;lon;timestamp;P1;durP1;ratioP1;P2;durP2;ratioP2
83634;SDS011;73596;49.482;11.238;2023-11-18T00:02:15;6.50;;;2.90;;
83634;SDS011;73596;49.482;11.238;2023-11-18T00:04:40;6.95;;;2.85;;
83634;SDS011;73596;49.482;11.238;2023-11-18T00:07:05;5.63;;;2.27;;
83634;SDS011;73596;49.482;11.238;2023-11-18T00:09:31;3.50;;;2.07;;
83634;SDS011;73596;49.482;11.238;2023-11-18T00:11:56;4.13;;;1.90;;
83634;SDS011;73596;49.482;11.238;2023-11-18T00:14:21;4.70;;;1.87;;
83634;SDS011;73596;49.482;11.238;2023-11-18T00:16:46;3.90;;;2.13;;
83634;SDS011;73596;49.482;11.238;2023-11-18T00:19:12;3.77;;;2.57;;
83634;SDS011;73596;49.482;11.238;2023-11-18T00:21:37;5.00;;;3.10;;
83634;SDS011;73596;49.482;11.238;2023-11-18T00:24:02;6.60;;;2.70;;
83634;SDS011;73596;49.482;11.238;2023-11-18T00:26:28;4.05;;;2.40;;
83634;SDS011;73596;49.482;11.238;2023-11-18T00:28:54;4.25;;;2.45;;
83634;SDS011;73596;49.482;11.238;2023-11-18T00:31:19;3.50;;;1.80;;
83634;SDS011;73596;49.482;11.238;2023-11-18T00:33:45;4.13;;;2.20;;
83634;SDS011;73596;49.482;11.238;2023-11-18T00:36:10;3.07;;;1.30;;
83634;SDS011;73596;49.482;11.238;2023-11-18T00:38:35;4.10;;;1.40;;
83634;SDS011;73596;49.482;11.238;2023-11-18T00:41:00;5.33;;;2.03;;
83634;SDS011;73596;49.482;11.238;2023-11-18T00:43:26;4.17;;;1.70;;
83634;SDS011;73596;49.482;11.238;2023-11-18T00:45:51;4.72;;;1.95;;
83634;SDS011;73596;49.482;11.238;2023-11-18T00:48:16;2.80;;;1.50;;
83634;SDS011;73596;49.482;11.238;2023-11-18T00:50:42;5.22;;;2.17;;
83634;SDS011;73596;49.482;11.238;2023-11-18T00:53:07;7.20;;;3.10;;
83634;SDS011;73596;49.482;11.238;2023-11-18T00:55:33;4.20;;;2.20;;
83634;SDS011;73596;49.482;11.238;2023-11-18T00:57:58;3.70;;;1.83;;
83634;SDS011;73596;49.482;11.238;2023-11-18T01:00:23;4.40;;;2.60;;
83634;SDS011;73596;49.482;11.238;2023-11-18T01:02:52;5.60;;;2.35;;
83634;SDS011;73596;49.482;11.238;2023-11-18T01:05:19;5.00;;;2.42;;
83634;SDS011;73596;49.482;11.238;2023-11-18T01:07:44;4.60;;;2.13;;
83634;SDS011;73596;49.482;11.238;2023-11-18T01:10:10;2.80;;;1.67;;
83634;SDS011;73596;49.482;11.238;2023-11-18T01:12:36;2.97;;;1.90;;
83634;SDS011;73596;49.482;11.238;2023-11-18T01:15:02;5.40;;;2.50;;
83634;SDS011;73596;49.482;11.238;2023-11-18T01:17:28;3.28;;;1.60;;
83634;SDS011;73596;49.482;11.238;2023-11-18T01:19:54;3.40;;;1.60;;
83634;SDS011;73596;49.482;11.238;2023-11-18T01:22:19;2.20;;;1.45;;
83634;SDS011;73596;49.482;11.238;2023-11-18T01:24:46;3.33;;;1.40;;
83634;SDS011;73596;49.482;11.238;2023-11-18T01:27:12;2.65;;;1.63;;
83634;SDS011;73596;49.482;11.238;2023-11-18T01:29:38;1.67;;;1.20;;
83634;SDS011;73596;49.482;11.238;2023-11-18T01:32:06;2.38;;;1.05;;
83634;SDS011;73596;49.482;11.238;2023-11-18T01:34:35;2.13;;;1.48;;
83634;SDS011;73596;49.482;11.238;2023-11-18T01:37:03;3.33;;;2.30;;
83634;SDS011;73596;49.482;11.238;2023-11-18T01:39:32;2.67;;;2.10;;
83634;SDS011;73596;49.482;11.238;2023-11-18T01:42:01;5.75;;;2.42;;
83634;SDS011;73596;49.482;11.238;2023-11-18T01:44:28;3.42;;;1.83;;
83634;SDS011;73596;49.482;11.238;2023-11-18T01:46:57;4.07;;;1.85;;
83634;SDS011;73596;49.482;11.238;2023-11-18T01:49:23;5.55;;;3.15;;
83634;SDS011;73596;49.482;11.238;2023-11-18T01:51:50;2.20;;;1.70;;
83634;SDS011;73596;49.482;11.238;2023-11-18T01:54:19;4.78;;;2.40;;
83634;SDS011;73596;49.482;11.238;2023-11-18T01:56:48;4.18;;;2.13;;
83634;SDS011;73596;49.482;11.238;2023-11-18T01:59:15;2.30;;;1.77;;
83634;SDS011;73596;49.482;11.238;2023-11-18T02:01:47;3.10;;;1.90;;
83634;SDS011;73596;49.482;11.238;2023-11-18T02:04:15;4.72;;;2.50;;
83634;SDS011;73596;49.482;11.238;2023-11-18T02:06:42;4.63;;;2.33;;
83634;SDS011;73596;49.482;11.238;2023-11-18T02:09:09;3.13;;;1.92;;
83634;SDS011;73596;49.482;11.238;2023-11-18T02:11:36;5.18;;;2.78;;
83634;SDS011;73596;49.482;11.238;2023-11-18T02:14:06;4.03;;;2.47;;
83634;SDS011;73596;49.482;11.238;2023-11-18T02:16:35;3.10;;;2.20;;
83634;SDS011;73596;49.482;11.238;2023-11-18T02:19:03;1.63;;;1.23;;
83634;SDS011;73596;49.482;11.238;2023-11-18T02:21:30;4.60;;;2.78;;
83634;SDS011;73596;49.482;11.238;2023-11-18T02:23:58;5.38;;;2.58;;
83634;SDS011;73596;49.482;11.238;2023-11-18T02:26:23;2.80;;;1.90;;
83634;SDS011;73596;49.482;11.238;2023-11-18T02:28:49;2.90;;;1.55;;
83634;SDS011;73596;49.482;11.238;2023-11-18T02:31:20;6.35;;;2.08;;
83634;SDS011;73596;49.482;11.238;2023-11-18T02:33:59;4.20;;;2.40;;
83634;SDS011;73596;49.482;11.238;2023-11-18T02:36:32;2.13;;;1.55;;
83634;SDS011;73596;49.482;11.238;2023-11-18T02:39:04;2.13;;;1.40;;
83634;SDS011;73596;49.482;11.238;2023-11-18T02:41:37;3.30;;;1.88;;
83634;SDS011;73596;49.482;11.238;2023-11-18T02:46:35;1.92;;;1.40;;
83634;SDS011;73596;49.482;11.238;2023-11-18T02:49:01;3.33;;;1.85;;
83634;SDS011;73596;49.482;11.238;2023-11-18T02:51:27;2.30;;;1.23;;
83634;SDS011;73596;49.482;11.238;2023-11-18T02:53:53;2.75;;;1.85;;
83634;SDS011;73596;49.482;11.238;2023-11-18T02:56:19;3.17;;;2.75;;
83634;SDS011;73596;49.482;11.238;2023-11-18T02:58:45;5.13;;;2.80;;
83634;SDS011;73596;49.482;11.238;2023-11-18T03:01:10;3.27;;;2.07;;
83634;SDS011;73596;49.482;11.238;2023-11-18T03:03:35;3.50;;;1.60;;
83634;SDS011;73596;49.482;11.238;2023-11-18T03:06:01;3.13;;;1.55;;
83634;SDS011;73596;49.482;11.238;2023-11-18T03:08:26;2.73;;;1.37;;
83634;SDS011;73596;49.482;11.238;2023-11-18T03:10:53;3.95;;;2.20;;
83634;SDS011;73596;49.482;11.238;2023-11-18T03:13:19;3.90;;;1.85;;
83634;SDS011;73596;49.482;11.238;2023-11-18T03:15:44;7.53;;;3.15;;
83634;SDS011;73596;49.482;11.238;2023-11-18T03:18:10;3.57;;;1.57;;
83634;SDS011;73596;49.482;11.238;2023-11-18T03:20:35;3.93;;;1.83;;
83634;SDS011;73596;49.482;11.238;2023-11-18T03:23:00;3.45;;;2.47;;
83634;SDS011;73596;49.482;11.238;2023-11-18T03:25:26;4.13;;;2.65;;
83634;SDS011;73596;49.482;11.238;2023-11-18T03:27:51;2.87;;;1.80;;
83634;SDS011;73596;49.482;11.238;2023-11-18T03:30:19;5.13;;;2.10;;
83634;SDS011;73596;49.482;11.238;2023-11-18T03:32:45;2.10;;;1.60;;
83634;SDS011;73596;49.482;11.238;2023-11-18T03:35:10;3.50;;;1.50;;
83634;SDS011;73596;49.482;11.238;2023-11-18T03:37:36;2.15;;;1.42;;
83634;SDS011;73596;49.482;11.238;2023-11-18T03:40:04;3.28;;;1.45;;
83634;SDS011;73596;49.482;11.238;2023-11-18T03:42:31;3.35;;;1.40;;
83634;SDS011;73596;49.482;11.238;2023-11-18T03:44:56;3.60;;;1.23;;
83634;SDS011;73596;49.482;11.238;2023-11-18T03:47:22;3.28;;;1.90;;
83634;SDS011;73596;49.482;11.238;2023-11-18T03:49:49;4.70;;;2.40;;
83634;SDS011;73596;49.482;11.238;2023-11-18T03:52:19;2.20;;;1.73;;
83634;SDS011;73596;49.482;11.238;2023-11-18T03:54:45;5.00;;;2.43;;
83634;SDS011;73596;49.482;11.238;2023-11-18T03:57:10;2.25;;;1.70;;
83634;SDS011;73596;49.482;11.238;2023-11-18T03:59:35;3.75;;;2.78;;
83634;SDS011;73596;49.482;11.238;2023-11-18T04:02:01;2.77;;;1.47;;
83634;SDS011;73596;49.482;11.238;2023-11-18T04:04:26;3.37;;;1.70;;
83634;SDS011;73596;49.482;11.238;2023-11-18T04:06:52;2.50;;;1.80;;
83634;SDS011;73596;49.482;11.238;2023-11-18T04:09:17;3.50;;;1.65;;
83634;SDS011;73596;49.482;11.238;2023-11-18T04:11:43;2.80;;;1.50;;
83634;SDS011;73596;49.482;11.238;2023-11-18T04:14:10;3.88;;;1.90;;
83634;SDS011;73596;49.482;11.238;2023-11-18T04:16:36;2.25;;;1.60;;
83634;SDS011;73596;49.482;11.238;2023-11-18T04:19:02;3.67;;;1.85;;
83634;SDS011;73596;49.482;11.238;2023-11-18T04:21:28;3.70;;;1.92;;
83634;SDS011;73596;49.482;11.238;2023-11-18T04:23:53;4.30;;;2.37;;
83634;SDS011;73596;49.482;11.238;2023-11-18T04:26:19;2.58;;;1.73;;
83634;SDS011;73596;49.482;11.238;2023-11-18T04:28:45;3.90;;;2.65;;
83634;SDS011;73596;49.482;11.238;2023-11-18T04:31:10;2.43;;;1.70;;
83634;SDS011;73596;49.482;11.238;2023-11-18T04:33:36;2.10;;;1.42;;
83634;SDS011;73596;49.482;11.238;2023-11-18T04:36:01;1.88;;;1.48;;
83634;SDS011;73596;49.482;11.238;2023-11-18T04:38:27;4.60;;;2.33;;
83634;SDS011;73596;49.482;11.238;2023-11-18T04:40:53;3.92;;;1.90;;
83634;SDS011;73596;49.482;11.238;2023-11-18T04:43:22;1.40;;;0.95;;
83634;SDS011;73596;49.482;11.238;2023-11-18T04:45:48;3.55;;;1.50;;
83634;SDS011;73596;49.482;11.238;2023-11-18T04:48:13;3.80;;;1.50;;
83634;SDS011;73596;49.482;11.238;2023-11-18T04:50:39;2.87;;;1.43;;
83634;SDS011;73596;49.482;11.238;2023-11-18T04:53:05;2.63;;;1.17;;
83634;SDS011;73596;49.482;11.238;2023-11-18T04:55:33;3.70;;;1.80;;
83634;SDS011;73596;49.482;11.238;2023-11-18T04:58:00;2.45;;;1.95;;
83634;SDS011;73596;49.482;11.238;2023-11-18T05:00:25;3.20;;;1.52;;
83634;SDS011;73596;49.482;11.238;2023-11-18T05:02:50;3.00;;;1.70;;
83634;SDS011;73596;49.482;11.238;2023-11-18T05:05:16;1.40;;;1.10;;
83634;SDS011;73596;49.482;11.238;2023-11-18T05:07:42;2.38;;;0.98;;
83634;SDS011;73596;49.482;11.238;2023-11-18T05:10:08;1.73;;;1.02;;
83634;SDS011;73596;49.482;11.238;2023-11-18T05:12:35;2.05;;;1.13;;
83634;SDS011;73596;49.482;11.238;2023-11-18T05:15:01;1.55;;;1.02;;
83634;SDS011;73596;49.482;11.238;2023-11-18T05:17:28;2.42;;;1.90;;
83634;SDS011;73596;49.482;11.238;2023-11-18T05:19:55;4.25;;;1.75;;
83634;SDS011;73596;49.482;11.238;2023-11-18T05:22:20;2.00;;;1.30;;
83634;SDS011;73596;49.482;11.238;2023-11-18T05:24:46;2.85;;;1.15;;
83634;SDS011;73596;49.482;11.238;2023-11-18T05:27:11;3.60;;;1.77;;
83634;SDS011;73596;49.482;11.238;2023-11-18T05:29:36;3.47;;;2.13;;
83634;SDS011;73596;49.482;11.238;2023-11-18T05:32:02;2.83;;;1.55;;
83634;SDS011;73596;49.482;11.238;2023-11-18T05:34:27;2.47;;;1.30;;
83634;SDS011;73596;49.482;11.238;2023-11-18T05:36:52;1.50;;;1.00;;
83634;SDS011;73596;49.482;11.238;2023-11-18T05:39:22;2.85;;;1.40;;
83634;SDS011;73596;49.482;11.238;2023-11-18T05:41:49;4.13;;;1.30;;
83634;SDS011;73596;49.482;11.238;2023-11-18T05:44:15;3.03;;;1.70;;
83634;SDS011;73596;49.482;11.238;2023-11-18T05:46:47;4.65;;;1.58;;
83634;SDS011;73596;49.482;11.238;2023-11-18T05:49:12;2.83;;;1.55;;
83634;SDS011;73596;49.482;11.238;2023-11-18T05:51:38;2.60;;;1.75;;
83634;SDS011;73596;49.482;11.238;2023-11-18T05:54:05;2.75;;;1.38;;
83634;SDS011;73596;49.482;11.238;2023-11-18T05:56:31;3.17;;;1.67;;
83634;SDS011;73596;49.482;11.238;2023-11-18T05:58:57;4.85;;;2.03;;
83634;SDS011;73596;49.482;11.238;2023-11-18T06:01:22;4.10;;;2.40;;
83634;SDS011;73596;49.482;11.238;2023-11-18T06:03:48;8.13;;;2.80;;
83634;SDS011;73596;49.482;11.238;2023-11-18T06:06:15;3.40;;;1.40;;
83634;SDS011;73596;49.482;11.238;2023-11-18T06:08:41;4.40;;;1.80;;
83634;SDS011;73596;49.482;11.238;2023-11-18T06:11:11;2.53;;;1.50;;
83634;SDS011;73596;49.482;11.238;2023-11-18T06:13:40;2.28;;;1.80;;
83634;SDS011;73596;49.482;11.238;2023-11-18T06:16:18;4.50;;;1.50;;
83634;SDS011;73596;49.482;11.238;2023-11-18T06:18:46;2.22;;;1.10;;
83634;SDS011;73596;49.482;11.238;2023-11-18T06:21:13;2.17;;;1.17;;
83634;SDS011;73596;49.482;11.238;2023-11-18T06:23:43;3.85;;;2.00;;
83634;SDS011;73596;49.482;11.238;2023-11-18T06:26:10;5.88;;;3.20;;
83634;SDS011;73596;49.482;11.238;2023-11-18T06:28:45;3.83;;;2.10;;
83634;SDS011;73596;49.482;11.238;2023-11-18T06:31:12;3.78;;;1.30;;
83634;SDS011;73596;49.482;11.238;2023-11-18T06:33:39;3.80;;;1.95;;
83634;SDS011;73596;49.482;11.238;2023-11-18T06:36:09;2.67;;;1.25;;
83634;SDS011;73596;49.482;11.238;2023-11-18T06:38:46;4.28;;;2.80;;
83634;SDS011;73596;49.482;11.238;2023-11-18T06:41:16;2.53;;;1.77;;
83634;SDS011;73596;49.482;11.238;2023-11-18T06:43:48;5.88;;;2.63;;
83634;SDS011;73596;49.482;11.238;2023-11-18T06:46:23;4.97;;;2.10;;
83634;SDS011;73596;49.482;11.238;2023-11-18T06:48:50;5.32;;;2.80;;
83634;SDS011;73596;49.482;11.238;2023-11-18T06:51:22;5.18;;;2.50;;
83634;SDS011;73596;49.482;11.238;2023-11-18T06:53:52;6.57;;;2.83;;
83634;SDS011;73596;49.482;11.238;2023-11-18T06:56:25;3.90;;;1.98;;
83634;SDS011;73596;49.482;11.238;2023-11-18T06:58:50;2.13;;;1.00;;
83634;SDS011;73596;49.482;11.238;2023-11-18T07:01:16;2.42;;;1.42;;
83634;SDS011;73596;49.482;11.238;2023-11-18T07:03:43;8.35;;;3.72;;
83634;SDS011;73596;49.482;11.238;2023-11-18T07:06:09;4.28;;;2.00;;
83634;SDS011;73596;49.482;11.238;2023-11-18T07:08:38;3.22;;;1.98;;
83634;SDS011;73596;49.482;11.238;2023-11-18T07:11:04;3.38;;;1.50;;
83634;SDS011;73596;49.482;11.238;2023-11-18T07:13:30;2.38;;;1.25;;
83634;SDS011;73596;49.482;11.238;2023-11-18T07:15:56;6.30;;;2.60;;
83634;SDS011;73596;49.482;11.238;2023-11-18T07:18:25;5.97;;;3.10;;
83634;SDS011;73596;49.482;11.238;2023-11-18T07:20:50;6.10;;;2.70;;
83634;SDS011;73596;49.482;11.238;2023-11-18T07:23:17;5.25;;;2.50;;
83634;SDS011;73596;49.482;11.238;2023-11-18T07:25:45;5.93;;;2.67;;
83634;SDS011;73596;49.482;11.238;2023-11-18T07:28:11;8.32;;;3.92;;
83634;SDS011;73596;49.482;11.238;2023-11-18T07:30:39;5.68;;;3.30;;
83634;SDS011;73596;49.482;11.238;2023-11-18T07:33:06;3.00;;;2.05;;
83634;SDS011;73596;49.482;11.238;2023-11-18T07:35:33;4.05;;;2.58;;
83634;SDS011;73596;49.482;11.238;2023-11-18T07:37:58;4.50;;;2.08;;
83634;SDS011;73596;49.482;11.238;2023-11-18T07:40:25;3.47;;;1.70;;
83634;SDS011;73596;49.482;11.238;2023-11-18T07:42:56;4.50;;;1.40;;
83634;SDS011;73596;49.482;11.238;2023-11-18T07:45:21;3.95;;;2.25;;
83634;SDS011;73596;49.482;11.238;2023-11-18T07:47:48;4.55;;;2.28;;
83634;SDS011;73596;49.482;11.238;2023-11-18T07:50:16;4.25;;;3.03;;
83634;SDS011;73596;49.482;11.238;2023-11-18T07:52:42;4.40;;;2.17;;
83634;SDS011;73596;49.482;11.238;2023-11-18T07:55:07;5.70;;;2.80;;
83634;SDS011;73596;49.482;11.238;2023-11-18T07:57:36;4.63;;;2.78;;
83634;SDS011;73596;49.482;11.238;2023-11-18T08:00:01;7.78;;;3.75;;
83634;SDS011;73596;49.482;11.238;2023-11-18T08:02:33;6.97;;;3.55;;
83634;SDS011;73596;49.482;11.238;2023-11-18T08:05:01;6.65;;;3.67;;
83634;SDS011;73596;49.482;11.238;2023-11-18T08:07:28;9.38;;;3.70;;
83634;SDS011;73596;49.482;11.238;2023-11-18T08:09:53;7.75;;;3.08;;
83634;SDS011;73596;49.482;11.238;2023-11-18T08:12:18;7.13;;;3.53;;
83634;SDS011;73596;49.482;11.238;2023-11-18T08:14:45;4.43;;;2.33;;
83634;SDS011;73596;49.482;11.238;2023-11-18T08:17:10;5.65;;;2.60;;
83634;SDS011;73596;49.482;11.238;2023-11-18T08:19:37;6.68;;;3.28;;
83634;SDS011;73596;49.482;11.238;2023-11-18T08:22:02;6.73;;;3.30;;
83634;SDS011;73596;49.482;11.238;2023-11-18T08:24:28;4.50;;;2.50;;
83634;SDS011;73596;49.482;11.238;2023-11-18T08:26:54;8.48;;;3.35;;
83634;SDS011;73596;49.482;11.238;2023-11-18T08:29:20;5.85;;;2.53;;
83634;SDS011;73596;49.482;11.238;2023-11-18T08:31:46;11.00;;;5.72;;
83634;SDS011;73596;49.482;11.238;2023-11-18T08:34:11;11.90;;;5.50;;
83634;SDS011;73596;49.482;11.238;2023-11-18T08:36:37;11.48;;;5.43;;
83634;SDS011;73596;49.482;11.238;2023-11-18T08:39:02;14.02;;;5.45;;
83634;SDS011;73596;49.482;11.238;2023-11-18T08:41:28;12.18;;;5.65;;
83634;SDS011;73596;49.482;11.238;2023-11-18T08:43:55;11.88;;;5.13;;
83634;SDS011;73596;49.482;11.238;2023-11-18T08:46:22;10.20;;;5.53;;
83634;SDS011;73596;49.482;11.238;2023-11-18T08:48:47;12.85;;;5.75;;
83634;SDS011;73596;49.482;11.238;2023-11-18T08:51:13;12.27;;;6.07;;
83634;SDS011;73596;49.482;11.238;2023-11-18T08:53:38;10.30;;;5.05;;
83634;SDS011;73596;49.482;11.238;2023-11-18T08:56:08;11.60;;;5.22;;
83634;SDS011;73596;49.482;11.238;2023-11-18T08:58:38;12.57;;;5.97;;
83634;SDS011;73596;49.482;11.238;2023-11-18T09:01:07;11.45;;;5.45;;
83634;SDS011;73596;49.482;11.238;2023-11-18T09:03:39;8.95;;;4.45;;
83634;SDS011;73596;49.482;11.238;2023-11-18T09:06:08;10.23;;;4.82;;
83634;SDS011;73596;49.482;11.238;2023-11-18T09:08:50;8.20;;;4.43;;
83634;SDS011;73596;49.482;11.238;2023-11-18T09:11:17;10.75;;;5.45;;
83634;SDS011;73596;49.482;11.238;2023-11-18T09:13:44;11.60;;;5.18;;
83634;SDS011;73596;49.482;11.238;2023-11-18T09:16:14;12.35;;;5.00;;
83634;SDS011;73596;49.482;11.238;2023-11-18T09:18:41;14.60;;;5.00;;
83634;SDS011;73596;49.482;11.238;2023-11-18T09:21:10;11.45;;;4.38;;
83634;SDS011;73596;49.482;11.238;2023-11-18T09:23:44;11.75;;;6.03;;
83634;SDS011;73596;49.482;11.238;2023-11-18T09:26:10;13.25;;;6.35;;
83634;SDS011;73596;49.482;11.238;2023-11-18T09:28:36;15.15;;;5.80;;
83634;SDS011;73596;49.482;11.238;2023-11-18T09:31:03;8.60;;;4.53;;
83634;SDS011;73596;49.482;11.238;2023-11-18T09:33:29;12.70;;;6.05;;
83634;SDS011;73596;49.482;11.238;2023-11-18T09:38:28;11.32;;;6.85;;
83634;SDS011;73596;49.482;11.238;2023-11-18T09:40:54;11.07;;;5.85;;
83634;SDS011;73596;49.482;11.238;2023-11-18T09:43:20;13.73;;;7.45;;
83634;SDS011;73596;49.482;11.238;2023-11-18T09:45:47;18.27;;;7.15;;
83634;SDS011;73596;49.482;11.238;2023-11-18T09:48:15;14.93;;;7.03;;
83634;SDS011;73596;49.482;11.238;2023-11-18T09:50:45;12.18;;;6.55;;
83634;SDS011;73596;49.482;11.238;2023-11-18T09:53:13;15.68;;;7.18;;
83634;SDS011;73596;49.482;11.238;2023-11-18T09:55:59;15.35;;;6.85;;
83634;SDS011;73596;49.482;11.238;2023-11-18T09:58:30;15.15;;;7.05;;
83634;SDS011;73596;49.482;11.238;2023-11-18T10:01:06;11.45;;;6.43;;
83634;SDS011;73596;49.482;11.238;2023-11-18T10:03:38;9.48;;;4.53;;
83634;SDS011;73596;49.482;11.238;2023-11-18T10:06:07;8.60;;;4.25;;
83634;SDS011;73596;49.482;11.238;2023-11-18T10:08:34;9.45;;;4.10;;
83634;SDS011;73596;49.482;11.238;2023-11-18T10:11:01;13.35;;;5.25;;
83634;SDS011;73596;49.482;11.238;2023-11-18T10:13:34;8.10;;;3.58;;
83634;SDS011;73596;49.482;11.238;2023-11-18T10:16:05;7.47;;;3.85;;
83634;SDS011;73596;49.482;11.238;2023-11-18T10:18:31;11.90;;;4.18;;
83634;SDS011;73596;49.482;11.238;2023-11-18T10:21:01;9.82;;;5.07;;
83634;SDS011;73596;49.482;11.238;2023-11-18T10:23:29;10.23;;;4.95;;
83634;SDS011;73596;49.482;11.238;2023-11-18T10:25:59;7.97;;;3.55;;
83634;SDS011;73596;49.482;11.238;2023-11-18T10:31:01;6.82;;;3.30;;
83634;SDS011;73596;49.482;11.238;2023-11-18T10:33:31;6.18;;;2.67;;
83634;SDS011;73596;49.482;11.238;2023-11-18T10:35:57;12.35;;;3.88;;
83634;SDS011;73596;49.482;11.238;2023-11-18T10:38:23;9.30;;;3.75;;
83634;SDS011;73596;49.482;11.238;2023-11-18T10:40:54;14.70;;;6.88;;
83634;SDS011;73596;49.482;11.238;2023-11-18T10:43:21;12.55;;;4.53;;
83634;SDS011;73596;49.482;11.238;2023-11-18T10:45:52;9.82;;;4.30;;
83634;SDS011;73596;49.482;11.238;2023-11-18T10:48:28;6.85;;;3.90;;
83634;SDS011;73596;49.482;11.238;2023-11-18T10:50:54;10.00;;;3.88;;
83634;SDS011;73596;49.482;11.238;2023-11-18T10:53:19;11.70;;;4.87;;
83634;SDS011;73596;49.482;11.238;2023-11-18T10:55:46;9.13;;;4.03;;
83634;SDS011;73596;49.482;11.238;2023-11-18T10:58:11;11.68;;;4.75;;
83634;SDS011;73596;49.482;11.238;2023-11-18T11:00:45;14.45;;;6.72;;
83634;SDS011;73596;49.482;11.238;2023-11-18T11:03:15;7.35;;;3.80;;
83634;SDS011;73596;49.482;11.238;2023-11-18T11:05:40;8.50;;;3.30;;
83634;SDS011;73596;49.482;11.238;2023-11-18T11:08:08;10.45;;;5.13;;
83634;SDS011;73596;49.482;11.238;2023-11-18T11:10:33;12.77;;;6.72;;
83634;SDS011;73596;49.482;11.238;2023-11-18T11:13:01;15.38;;;6.93;;
83634;SDS011;73596;49.482;11.238;2023-11-18T11:15:30;16.00;;;7.55;;
83634;SDS011;73596;49.482;11.238;2023-11-18T11:17:58;11.68;;;5.75;;
83634;SDS011;73596;49.482;11.238;2023-11-18T11:20:34;10.35;;;4.93;;
83634;SDS011;73596;49.482;11.238;2023-11-18T11:23:19;11.77;;;5.00;;
83634;SDS011;73596;49.482;11.238;2023-11-18T11:28:37;15.13;;;8.15;;
83634;SDS011;73596;49.482;11.238;2023-11-18T11:33:55;19.70;;;6.45;;
83634;SDS011;73596;49.482;11.238;2023-11-18T11:36:25;14.75;;;6.40;;
83634;SDS011;73596;49.482;11.238;2023-11-18T11:38:56;13.38;;;6.45;;
83634;SDS011;73596;49.482;11.238;2023-11-18T11:41:23;14.65;;;7.68;;
83634;SDS011;73596;49.482;11.238;2023-11-18T11:43:52;8.73;;;4.65;;
83634;SDS011;73596;49.482;11.238;2023-11-18T11:46:22;9.13;;;4.90;;
83634;SDS011;73596;49.482;11.238;2023-11-18T11:49:00;10.50;;;4.10;;
83634;SDS011;73596;49.482;11.238;2023-11-18T11:54:07;5.47;;;2.83;;
83634;SDS011;73596;49.482;11.238;2023-11-18T11:56:43;10.02;;;3.50;;
83634;SDS011;73596;49.482;11.238;2023-11-18T11:59:12;8.75;;;3.88;;
83634;SDS011;73596;49.482;11.238;2023-11-18T12:01:40;7.78;;;3.22;;
83634;SDS011;73596;49.482;11.238;2023-11-18T12:04:11;8.48;;;4.32;;
83634;SDS011;73596;49.482;11.238;2023-11-18T12:06:46;5.38;;;3.35;;
83634;SDS011;73596;49.482;11.238;2023-11-18T12:09:13;7.38;;;3.28;;
83634;SDS011;73596;49.482;11.238;2023-11-18T12:11:44;5.80;;;3.60;;
83634;SDS011;73596;49.482;11.238;2023-11-18T12:14:14;6.80;;;2.80;;
83634;SDS011;73596;49.482;11.238;2023-11-18T12:17:07;4.20;;;2.83;;
83634;SDS011;73596;49.482;11.238;2023-11-18T12:19:35;6.82;;;3.50;;
83634;SDS011;73596;49.482;11.238;2023-11-18T12:24:44;5.18;;;2.95;;
83634;SDS011;73596;49.482;11.238;2023-11-18T12:27:12;6.05;;;2.63;;
83634;SDS011;73596;49.482;11.238;2023-11-18T12:29:44;7.22;;;3.83;;
83634;SDS011;73596;49.482;11.238;2023-11-18T12:32:09;4.63;;;3.17;;
83634;SDS011;73596;49.482;11.238;2023-11-18T12:34:51;8.52;;;3.30;;
83634;SDS011;73596;49.482;11.238;2023-11-18T12:37:23;11.02;;;5.03;;
83634;SDS011;73596;49.482;11.238;2023-11-18T12:43:08;13.63;;;6.70;;
83634;SDS011;73596;49.482;11.238;2023-11-18T12:48:41;7.68;;;4.05;;
83634;SDS011;73596;49.482;11.238;2023-11-18T12:51:09;6.65;;;4.45;;
83634;SDS011;73596;49.482;11.238;2023-11-18T12:53:44;10.73;;;5.45;;
83634;SDS011;73596;49.482;11.238;2023-11-18T12:56:12;10.85;;;4.55;;
83634;SDS011;73596;49.482;11.238;2023-11-18T12:58:39;9.15;;;5.03;;
83634;SDS011;73596;49.482;11.238;2023-11-18T13:01:04;8.48;;;5.13;;
83634;SDS011;73596;49.482;11.238;2023-11-18T13:03:30;14.15;;;4.85;;
83634;SDS011;73596;49.482;11.238;2023-11-18T13:05:55;14.57;;;5.10;;
83634;SDS011;73596;49.482;11.238;2023-11-18T13:08:21;7.65;;;3.58;;
83634;SDS011;73596;49.482;11.238;2023-11-18T13:10:47;4.90;;;2.58;;
83634;SDS011;73596;49.482;11.238;2023-11-18T13:13:13;6.25;;;2.72;;
83634;SDS011;73596;49.482;11.238;2023-11-18T13:15:42;6.43;;;2.95;;
83634;SDS011;73596;49.482;11.238;2023-11-18T13:18:07;6.32;;;3.03;;
83634;SDS011;73596;49.482;11.238;2023-11-18T13:20:34;5.22;;;3.20;;
83634;SDS011;73596;49.482;11.238;2023-11-18T13:23:04;5.45;;;2.95;;
83634;SDS011;73596;49.482;11.238;2023-11-18T13:25:40;5.63;;;2.28;;
83634;SDS011;73596;49.482;11.238;2023-11-18T13:28:09;7.93;;;2.78;;
83634;SDS011;73596;49.482;11.238;2023-11-18T13:30:35;3.95;;;2.35;;
83634;SDS011;73596;49.482;11.238;2023-11-18T13:33:00;4.50;;;2.28;;
83634;SDS011;73596;49.482;11.238;2023-11-18T13:35:26;4.63;;;2.72;;
83634;SDS011;73596;49.482;11.238;2023-11-18T13:37:52;5.38;;;1.90;;
83634;SDS011;73596;49.482;11.238;2023-11-18T13:40:18;5.60;;;2.50;;
83634;SDS011;73596;49.482;11.238;2023-11-18T13:42:44;2.70;;;1.70;;
83634;SDS011;73596;49.482;11.238;2023-11-18T13:45:11;4.07;;;2.08;;
83634;SDS011;73596;49.482;11.238;2023-11-18T13:50:15;4.20;;;1.83;;
83634;SDS011;73596;49.482;11.238;2023-11-18T13:52:42;3.90;;;2.03;;
83634;SDS011;73596;49.482;11.238;2023-11-18T13:55:08;3.08;;;1.73;;
83634;SDS011;73596;49.482;11.238;2023-11-18T13:57:41;4.63;;;1.50;;
83634;SDS011;73596;49.482;11.238;2023-11-18T14:00:07;2.72;;;1.55;;
83634;SDS011;73596;49.482;11.238;2023-11-18T14:02:39;2.47;;;1.48;;
83634;SDS011;73596;49.482;11.238;2023-11-18T14:05:05;2.92;;;2.03;;
83634;SDS011;73596;49.482;11.238;2023-11-18T14:07:41;2.55;;;1.58;;
83634;SDS011;73596;49.482;11.238;2023-11-18T14:10:08;2.75;;;1.50;;
83634;SDS011;73596;49.482;11.238;2023-11-18T14:12:36;3.70;;;1.80;;
83634;SDS011;73596;49.482;11.238;2023-11-18T14:15:02;2.17;;;1.52;;
83634;SDS011;73596;49.482;11.238;2023-11-18T14:17:28;2.97;;;1.20;;
83634;SDS011;73596;49.482;11.238;2023-11-18T14:19:53;1.77;;;0.93;;
83634;SDS011;73596;49.482;11.238;2023-11-18T14:22:19;2.05;;;1.10;;
83634;SDS011;73596;49.482;11.238;2023-11-18T14:24:44;2.53;;;1.10;;
83634;SDS011;73596;49.482;11.238;2023-11-18T14:27:09;1.47;;;0.80;;
83634;SDS011;73596;49.482;11.238;2023-11-18T14:29:35;0.80;;;0.80;;
83634;SDS011;73596;49.482;11.238;2023-11-18T14:32:01;0.68;;;0.40;;
83634;SDS011;73596;49.482;11.238;2023-11-18T14:34:26;1.65;;;0.82;;
83634;SDS011;73596;49.482;11.238;2023-11-18T14:36:52;1.85;;;1.02;;
83634;SDS011;73596;49.482;11.238;2023-11-18T14:39:17;1.43;;;0.80;;
83634;SDS011;73596;49.482;11.238;2023-11-18T14:41:47;2.25;;;1.20;;
83634;SDS011;73596;49.482;11.238;2023-11-18T14:44:12;3.72;;;1.38;;
83634;SDS011;73596;49.482;11.238;2023-11-18T14:46:37;1.67;;;1.20;;
83634;SDS011;73596;49.482;11.238;2023-11-18T14:49:03;2.20;;;1.00;;
83634;SDS011;73596;49.482;11.238;2023-11-18T14:51:30;1.00;;;0.70;;
83634;SDS011;73596;49.482;11.238;2023-11-18T14:53:56;0.98;;;0.70;;
83634;SDS011;73596;49.482;11.238;2023-11-18T14:56:21;1.20;;;0.70;;
83634;SDS011;73596;49.482;11.238;2023-11-18T14:58:47;0.65;;;0.50;;
83634;SDS011;73596;49.482;11.238;2023-11-18T15:01:14;1.20;;;0.50;;
83634;SDS011;73596;49.482;11.238;2023-11-18T15:03:40;1.30;;;0.88;;